Accueil
METAR-TAF:

METAR-TAF

Aéroports :

Aéroport Otto-Lilienthal de Berlin-Tegel

Berlin, Allemagne

latitude: 52-34N, longitude: 013-19E, altitude: 37 m

Observation

Le bulletin a été fait il y a 34 minutes, à 01:50 UTC
Vent 1 kt de ouest/sud-ouest
Température 15°C
Humidité 88%
Pression 1021 hPa
Visibilité 10 km ou plus
pas de nuages en-dessous de 1500 mètres et pas de cumulonimbus.

METAR: EDDT 190150Z 24001KT CAVOK 15/13 Q1021

Heure: 04:24 (02:24 UTC)

Prévision

Le bulletin a été fait il y a 3 heures et 24 minutes, à 23:00 UTC
Prévision valable du 19 à 00 UTC au 19 à 24 UTC
Vent 2 kt de direction variable
Visibilité 10 km ou plus
pas de nuages en-dessous de 1500 mètres et pas de cumulonimbus.
Evoluant progressivement
du 19 à 06 UTC au 19 à 08 UTC
Vent 7 kt de ouest
Evoluant progressivement
du 19 à 16 UTC au 19 à 18 UTC
Vent 3 kt de direction variable

TAF: EDDT 182300Z 1900/1924 VRB02KT CAVOK BECMG 1906/1908 28007KT BECMG 1916/1918 VRB03KT

Observations et prévisions météorologiques de plus de 4000 aéroports (messages METAR et TAF).

Les stations disponibles sont représentées par des disques jaunes et rouges sur la carte.

Passer la souris dessus pour voir le nom de la station.

Cliquer dessus pour voir les observations et prévisions météorologiques.

Pour changer de carte: cliquez sur les boutons verts avec une croix noire pour zoomer, sur le bouton vert avec un tiret pour effectuer un zoom arrière, ou sur les flèches vertes pour les cartes adjacentes.


METAR-TAF: